RA73750 UHPX-UHPP
Flight info
| Callsign | RA73750 |
|---|---|
| Flight time | 0h 48m |
| Altitude | 32000 |
| Route | DCT OBIKO DCT LOLSA DCT TUPAN |
| Aircraft | C750/M-SABDGRWY/H |
Departure
| Time | 2026-04-19 20:38 |
|---|---|
| Airport | Nikolskoye Airport (UHPX) |
Arrival
| Time | 2026-04-19 21:26 |
|---|---|
| Airport | Yelizovo Airport (UHPP) |
| Time | Latitude | Longitude | Altitude | Speed | Heading |
|---|---|---|---|---|---|
| 2026-04-19 20:24 | 55.17731 | 166.04544 | 175 ft | 0 kts | 41° |
| 2026-04-19 20:34 | 55.17740 | 166.04541 | 178 ft | 3 kts | 333° |
| 2026-04-19 20:34 | 55.17732 | 166.04507 | 179 ft | 5 kts | 216° |
| 2026-04-19 20:34 | 55.17693 | 166.04534 | 178 ft | 6 kts | 123° |
| 2026-04-19 20:35 | 55.17675 | 166.04624 | 176 ft | 9 kts | 90° |
| 2026-04-19 20:35 | 55.17725 | 166.04715 | 175 ft | 12 kts | 31° |
| 2026-04-19 20:35 | 55.17794 | 166.04789 | 175 ft | 12 kts | 34° |
| 2026-04-19 20:35 | 55.17871 | 166.04879 | 172 ft | 15 kts | 33° |
| 2026-04-19 20:36 | 55.17954 | 166.04977 | 175 ft | 14 kts | 34° |
| 2026-04-19 20:36 | 55.18040 | 166.05082 | 174 ft | 17 kts | 36° |
| 2026-04-19 20:36 | 55.18125 | 166.05208 | 177 ft | 11 kts | 55° |
| 2026-04-19 20:36 | 55.18141 | 166.05236 | 177 ft | 8 kts | 19° |
| 2026-04-19 20:37 | 55.18139 | 166.05202 | 177 ft | 0 kts | 212° |
| 2026-04-19 20:37 | 55.18123 | 166.05185 | 177 ft | 20 kts | 212° |
| 2026-04-19 20:37 | 55.17737 | 166.04735 | 175 ft | 114 kts | 213° |
| 2026-04-19 20:38 | 55.16953 | 166.03836 | 421 ft | 143 kts | 221° |
| 2026-04-19 20:38 | 55.16117 | 166.02847 | 979 ft | 153 kts | 217° |
| 2026-04-19 20:38 | 55.15112 | 166.02025 | 1512 ft | 164 kts | 210° |
| 2026-04-19 20:38 | 55.14045 | 166.01157 | 2012 ft | 177 kts | 211° |
| 2026-04-19 20:39 | 55.12872 | 166.00090 | 2317 ft | 202 kts | 221° |
| 2026-04-19 20:39 | 55.12128 | 165.97969 | 2548 ft | 215 kts | 261° |
| 2026-04-19 20:39 | 55.12038 | 165.95276 | 2914 ft | 232 kts | 279° |
| 2026-04-19 20:39 | 55.12271 | 165.92388 | 3547 ft | 242 kts | 283° |
| 2026-04-19 20:40 | 55.12475 | 165.89496 | 4487 ft | 244 kts | 279° |
| 2026-04-19 20:40 | 55.12585 | 165.86505 | 5307 ft | 250 kts | 277° |
| 2026-04-19 20:40 | 55.12683 | 165.83447 | 6176 ft | 253 kts | 277° |
| 2026-04-19 20:40 | 55.12810 | 165.80343 | 7017 ft | 257 kts | 278° |
| 2026-04-19 20:41 | 55.12939 | 165.77251 | 7981 ft | 259 kts | 278° |
| 2026-04-19 20:41 | 55.13063 | 165.74100 | 8976 ft | 261 kts | 277° |
| 2026-04-19 20:41 | 55.13188 | 165.70898 | 9897 ft | 265 kts | 277° |
| 2026-04-19 20:41 | 55.13320 | 165.67553 | 10265 ft | 288 kts | 277° |
| 2026-04-19 20:42 | 55.13465 | 165.63895 | 10375 ft | 316 kts | 276° |
| 2026-04-19 20:42 | 55.13612 | 165.59997 | 10831 ft | 327 kts | 276° |
| 2026-04-19 20:42 | 55.13756 | 165.56029 | 11686 ft | 328 kts | 276° |
| 2026-04-19 20:42 | 55.13903 | 165.52007 | 12383 ft | 333 kts | 275° |
| 2026-04-19 20:43 | 55.13627 | 165.47934 | 12951 ft | 343 kts | 258° |
| 2026-04-19 20:43 | 55.12972 | 165.43916 | 13754 ft | 344 kts | 257° |
| 2026-04-19 20:43 | 55.12359 | 165.39902 | 14324 ft | 349 kts | 258° |
| 2026-04-19 20:43 | 55.11752 | 165.35770 | 14917 ft | 353 kts | 258° |
| 2026-04-19 20:44 | 55.11113 | 165.31596 | 15502 ft | 357 kts | 257° |
| 2026-04-19 20:44 | 55.10451 | 165.27390 | 16110 ft | 362 kts | 257° |
| 2026-04-19 20:44 | 55.09786 | 165.23115 | 16714 ft | 366 kts | 257° |
| 2026-04-19 20:44 | 55.09121 | 165.18787 | 17363 ft | 371 kts | 257° |
| 2026-04-19 20:45 | 55.08443 | 165.14408 | 17988 ft | 375 kts | 256° |
| 2026-04-19 20:45 | 55.07760 | 165.10048 | 18543 ft | 380 kts | 256° |
| 2026-04-19 20:45 | 55.07055 | 165.05550 | 19104 ft | 384 kts | 256° |
| 2026-04-19 20:45 | 55.06344 | 165.01012 | 19686 ft | 389 kts | 256° |
| 2026-04-19 20:46 | 55.05627 | 164.96438 | 20255 ft | 393 kts | 255° |
| 2026-04-19 20:46 | 55.04894 | 164.91791 | 20818 ft | 398 kts | 255° |
| 2026-04-19 20:46 | 55.04163 | 164.87175 | 21378 ft | 403 kts | 255° |
| 2026-04-19 20:46 | 55.03410 | 164.82423 | 21932 ft | 408 kts | 255° |
| 2026-04-19 20:47 | 55.02643 | 164.77594 | 22491 ft | 413 kts | 255° |
| 2026-04-19 20:47 | 55.01869 | 164.72739 | 23038 ft | 418 kts | 255° |
| 2026-04-19 20:47 | 55.01083 | 164.67824 | 23560 ft | 423 kts | 254° |
| 2026-04-19 20:47 | 55.00295 | 164.62906 | 23978 ft | 428 kts | 254° |
| 2026-04-19 20:48 | 54.99488 | 164.57885 | 24454 ft | 432 kts | 254° |
| 2026-04-19 20:48 | 54.98665 | 164.52784 | 24926 ft | 437 kts | 254° |
| 2026-04-19 20:48 | 54.97835 | 164.47661 | 25351 ft | 443 kts | 254° |
| 2026-04-19 20:48 | 54.96996 | 164.42487 | 25852 ft | 446 kts | 254° |
| 2026-04-19 20:49 | 54.96143 | 164.37244 | 26307 ft | 451 kts | 253° |
| 2026-04-19 20:49 | 54.95281 | 164.31964 | 26820 ft | 455 kts | 253° |
| 2026-04-19 20:49 | 54.94422 | 164.26718 | 27313 ft | 459 kts | 253° |
| 2026-04-19 20:49 | 54.93538 | 164.21341 | 27828 ft | 463 kts | 253° |
| 2026-04-19 20:50 | 54.92650 | 164.15950 | 28332 ft | 467 kts | 253° |
| 2026-04-19 20:50 | 54.91751 | 164.10508 | 28827 ft | 471 kts | 253° |
| 2026-04-19 20:50 | 54.90828 | 164.04947 | 29321 ft | 475 kts | 253° |
| 2026-04-19 20:50 | 54.89919 | 163.99481 | 29784 ft | 480 kts | 253° |
| 2026-04-19 20:51 | 54.88983 | 163.93872 | 30183 ft | 484 kts | 253° |
| 2026-04-19 20:51 | 54.88037 | 163.88225 | 30614 ft | 486 kts | 253° |
| 2026-04-19 20:51 | 54.87085 | 163.82559 | 31164 ft | 486 kts | 253° |
| 2026-04-19 20:51 | 54.86146 | 163.76981 | 31766 ft | 477 kts | 253° |
| 2026-04-19 20:52 | 54.85199 | 163.71382 | 31791 ft | 490 kts | 253° |
| 2026-04-19 20:52 | 54.84234 | 163.65694 | 31790 ft | 502 kts | 253° |
| 2026-04-19 20:52 | 54.83233 | 163.59809 | 31802 ft | 514 kts | 253° |
| 2026-04-19 20:52 | 54.82206 | 163.53795 | 31804 ft | 523 kts | 253° |
| 2026-04-19 20:53 | 54.80105 | 163.41551 | 31802 ft | 537 kts | 253° |
| 2026-04-19 20:53 | 54.77943 | 163.29040 | 31800 ft | 544 kts | 253° |
| 2026-04-19 20:54 | 54.75761 | 163.16499 | 31797 ft | 547 kts | 252° |
| 2026-04-19 20:54 | 54.73547 | 163.03867 | 31802 ft | 546 kts | 252° |
| 2026-04-19 20:55 | 54.71338 | 162.91351 | 31801 ft | 547 kts | 252° |
| 2026-04-19 20:55 | 54.69109 | 162.78807 | 31805 ft | 546 kts | 252° |
| 2026-04-19 20:56 | 54.66854 | 162.66208 | 31807 ft | 546 kts | 252° |
| 2026-04-19 20:56 | 54.64597 | 162.53677 | 31806 ft | 546 kts | 252° |
| 2026-04-19 20:57 | 54.62339 | 162.41232 | 31806 ft | 546 kts | 252° |
| 2026-04-19 20:57 | 54.59567 | 162.29086 | 31799 ft | 543 kts | 243° |
| 2026-04-19 20:58 | 54.56342 | 162.17374 | 31810 ft | 543 kts | 244° |
| 2026-04-19 20:58 | 54.53089 | 162.05598 | 31799 ft | 542 kts | 243° |
| 2026-04-19 20:59 | 54.49836 | 161.93939 | 31802 ft | 541 kts | 244° |
| 2026-04-19 20:59 | 54.46575 | 161.82243 | 31800 ft | 541 kts | 243° |
| 2026-04-19 21:00 | 54.43311 | 161.70659 | 31795 ft | 539 kts | 243° |
| 2026-04-19 21:00 | 54.40038 | 161.59044 | 31793 ft | 539 kts | 243° |
| 2026-04-19 21:01 | 54.36759 | 161.47513 | 31791 ft | 540 kts | 243° |
| 2026-04-19 21:01 | 54.33441 | 161.35864 | 31794 ft | 542 kts | 243° |
| 2026-04-19 21:02 | 54.30134 | 161.24339 | 31793 ft | 541 kts | 243° |
| 2026-04-19 21:02 | 54.26808 | 161.12786 | 31791 ft | 540 kts | 243° |
| 2026-04-19 21:03 | 54.23481 | 161.01299 | 31795 ft | 540 kts | 243° |
| 2026-04-19 21:03 | 54.20135 | 160.89796 | 31793 ft | 540 kts | 243° |
| 2026-04-19 21:04 | 54.16798 | 160.78384 | 31790 ft | 539 kts | 243° |
| 2026-04-19 21:04 | 54.13429 | 160.66916 | 31795 ft | 539 kts | 243° |
| 2026-04-19 21:05 | 54.10054 | 160.55481 | 31797 ft | 538 kts | 243° |
| 2026-04-19 21:05 | 54.06730 | 160.44275 | 31800 ft | 538 kts | 243° |
| 2026-04-19 21:06 | 54.03478 | 160.33361 | 31793 ft | 538 kts | 243° |
| 2026-04-19 21:06 | 54.00243 | 160.22559 | 31799 ft | 538 kts | 243° |
| 2026-04-19 21:07 | 53.96909 | 160.11472 | 31801 ft | 538 kts | 243° |
| 2026-04-19 21:07 | 53.93568 | 160.00414 | 31803 ft | 538 kts | 243° |
| 2026-04-19 21:08 | 53.90246 | 159.89472 | 31809 ft | 537 kts | 243° |
| 2026-04-19 21:08 | 53.86896 | 159.78487 | 31806 ft | 536 kts | 243° |
| 2026-04-19 21:09 | 53.83554 | 159.67576 | 31813 ft | 535 kts | 242° |
| 2026-04-19 21:09 | 53.81760 | 159.61741 | 31803 ft | 524 kts | 242° |
| 2026-04-19 21:09 | 53.80123 | 159.56432 | 31794 ft | 492 kts | 242° |
| 2026-04-19 21:10 | 53.78597 | 159.51491 | 31713 ft | 470 kts | 242° |
| 2026-04-19 21:10 | 53.77082 | 159.46595 | 31083 ft | 466 kts | 242° |
| 2026-04-19 21:10 | 53.75575 | 159.41730 | 30475 ft | 466 kts | 242° |
| 2026-04-19 21:10 | 53.74081 | 159.36923 | 29867 ft | 465 kts | 242° |
| 2026-04-19 21:11 | 53.72587 | 159.32124 | 29218 ft | 456 kts | 242° |
| 2026-04-19 21:11 | 53.71120 | 159.27424 | 28627 ft | 450 kts | 242° |
| 2026-04-19 21:11 | 53.69666 | 159.22769 | 28036 ft | 445 kts | 242° |
| 2026-04-19 21:11 | 53.68228 | 159.18179 | 27452 ft | 440 kts | 242° |
| 2026-04-19 21:12 | 53.66765 | 159.13686 | 26866 ft | 434 kts | 239° |
| 2026-04-19 21:12 | 53.64934 | 159.09655 | 26294 ft | 430 kts | 228° |
| 2026-04-19 21:12 | 53.62767 | 159.06327 | 25795 ft | 425 kts | 218° |
| 2026-04-19 21:12 | 53.60282 | 159.03679 | 25795 ft | 423 kts | 208° |
| 2026-04-19 21:13 | 53.57541 | 159.01782 | 25802 ft | 427 kts | 198° |
| 2026-04-19 21:13 | 53.54656 | 159.00578 | 25816 ft | 428 kts | 194° |
| 2026-04-19 21:13 | 53.51740 | 158.99438 | 25814 ft | 430 kts | 194° |
| 2026-04-19 21:13 | 53.48858 | 158.98288 | 25458 ft | 433 kts | 194° |
| 2026-04-19 21:14 | 53.45900 | 158.97119 | 23956 ft | 440 kts | 194° |
| 2026-04-19 21:14 | 53.42958 | 158.95979 | 22856 ft | 426 kts | 194° |
| 2026-04-19 21:14 | 53.40121 | 158.94876 | 21829 ft | 411 kts | 194° |
| 2026-04-19 21:14 | 53.37369 | 158.93794 | 20811 ft | 398 kts | 194° |
| 2026-04-19 21:15 | 53.34743 | 158.92765 | 19832 ft | 388 kts | 194° |
| 2026-04-19 21:15 | 53.32226 | 158.91786 | 18890 ft | 380 kts | 194° |
| 2026-04-19 21:15 | 53.29774 | 158.90833 | 17998 ft | 373 kts | 194° |
| 2026-04-19 21:15 | 53.27299 | 158.89869 | 17075 ft | 365 kts | 194° |
| 2026-04-19 21:16 | 53.24946 | 158.88953 | 16115 ft | 361 kts | 194° |
| 2026-04-19 21:16 | 53.22444 | 158.87983 | 15188 ft | 355 kts | 194° |
| 2026-04-19 21:16 | 53.20035 | 158.87050 | 14298 ft | 353 kts | 194° |
| 2026-04-19 21:16 | 53.17663 | 158.86131 | 13397 ft | 353 kts | 195° |
| 2026-04-19 21:17 | 53.15276 | 158.85206 | 12495 ft | 349 kts | 194° |
| 2026-04-19 21:17 | 53.12915 | 158.84296 | 11621 ft | 343 kts | 194° |
| 2026-04-19 21:17 | 53.10615 | 158.83411 | 10770 ft | 334 kts | 194° |
| 2026-04-19 21:17 | 53.08404 | 158.82557 | 9952 ft | 326 kts | 194° |
| 2026-04-19 21:18 | 53.06216 | 158.81714 | 9109 ft | 317 kts | 194° |
| 2026-04-19 21:18 | 53.04200 | 158.80944 | 8376 ft | 279 kts | 194° |
| 2026-04-19 21:18 | 53.02306 | 158.80209 | 7683 ft | 280 kts | 195° |
| 2026-04-19 21:18 | 53.00579 | 158.78925 | 6891 ft | 274 kts | 217° |
| 2026-04-19 21:19 | 52.99345 | 158.76489 | 5860 ft | 274 kts | 242° |
| 2026-04-19 21:19 | 52.98634 | 158.73728 | 5165 ft | 256 kts | 249° |
| 2026-04-19 21:19 | 52.97998 | 158.71013 | 4765 ft | 241 kts | 249° |
| 2026-04-19 21:19 | 52.97395 | 158.68540 | 4467 ft | 220 kts | 249° |
| 2026-04-19 21:20 | 52.97015 | 158.67009 | 4290 ft | 213 kts | 249° |
| 2026-04-19 21:20 | 52.96462 | 158.64764 | 4067 ft | 208 kts | 249° |
| 2026-04-19 21:20 | 52.96112 | 158.61701 | 3677 ft | 207 kts | 281° |
| 2026-04-19 21:20 | 52.96453 | 158.60227 | 3545 ft | 205 kts | 300° |
| 2026-04-19 21:21 | 52.97490 | 158.58648 | 3338 ft | 205 kts | 330° |
| 2026-04-19 21:21 | 52.98794 | 158.57693 | 3185 ft | 206 kts | 335° |
| 2026-04-19 21:21 | 53.00101 | 158.56691 | 2968 ft | 207 kts | 335° |
| 2026-04-19 21:21 | 53.01411 | 158.55755 | 2728 ft | 207 kts | 336° |
| 2026-04-19 21:22 | 53.02740 | 158.54858 | 2489 ft | 205 kts | 337° |
| 2026-04-19 21:22 | 53.04057 | 158.53951 | 2252 ft | 202 kts | 336° |
| 2026-04-19 21:22 | 53.05233 | 158.53141 | 2016 ft | 165 kts | 336° |
| 2026-04-19 21:22 | 53.06214 | 158.52467 | 2020 ft | 143 kts | 336° |
| 2026-04-19 21:23 | 53.07173 | 158.51805 | 1826 ft | 157 kts | 336° |
| 2026-04-19 21:23 | 53.08190 | 158.51101 | 1594 ft | 160 kts | 336° |
| 2026-04-19 21:23 | 53.09183 | 158.50413 | 1386 ft | 143 kts | 336° |
| 2026-04-19 21:23 | 53.10057 | 158.49815 | 1173 ft | 129 kts | 338° |
| 2026-04-19 21:24 | 53.10855 | 158.49268 | 1021 ft | 120 kts | 337° |
| 2026-04-19 21:24 | 53.11621 | 158.48739 | 887 ft | 121 kts | 337° |
| 2026-04-19 21:24 | 53.12406 | 158.48196 | 750 ft | 123 kts | 337° |
| 2026-04-19 21:24 | 53.13196 | 158.47651 | 616 ft | 123 kts | 336° |
| 2026-04-19 21:25 | 53.13990 | 158.47100 | 468 ft | 123 kts | 336° |
| 2026-04-19 21:25 | 53.14777 | 158.46554 | 325 ft | 124 kts | 336° |
| 2026-04-19 21:25 | 53.15583 | 158.45998 | 178 ft | 126 kts | 336° |
| 2026-04-19 21:25 | 53.16348 | 158.45466 | 138 ft | 110 kts | 336° |
| 2026-04-19 21:26 | 53.16928 | 158.45067 | 133 ft | 64 kts | 338° |
| 2026-04-19 21:26 | 53.17226 | 158.44867 | 134 ft | 39 kts | 338° |
| 2026-04-19 21:26 | 53.17444 | 158.44712 | 136 ft | 32 kts | 336° |
| 2026-04-19 21:26 | 53.17577 | 158.44585 | 135 ft | 16 kts | 295° |
| 2026-04-19 21:27 | 53.17551 | 158.44411 | 134 ft | 16 kts | 248° |
| 2026-04-19 21:27 | 53.17510 | 158.44241 | 133 ft | 16 kts | 248° |
| 2026-04-19 21:27 | 53.17470 | 158.44076 | 133 ft | 15 kts | 248° |
| 2026-04-19 21:27 | 53.17420 | 158.43925 | 133 ft | 15 kts | 239° |
| 2026-04-19 21:28 | 53.17368 | 158.43781 | 133 ft | 14 kts | 239° |
| 2026-04-19 21:28 | 53.17311 | 158.43620 | 133 ft | 20 kts | 239° |
| 2026-04-19 21:28 | 53.17243 | 158.43429 | 133 ft | 19 kts | 239° |
| 2026-04-19 21:28 | 53.17177 | 158.43243 | 133 ft | 18 kts | 239° |
| 2026-04-19 21:29 | 53.17114 | 158.43063 | 133 ft | 18 kts | 240° |
| 2026-04-19 21:29 | 53.17055 | 158.42888 | 133 ft | 17 kts | 242° |
| 2026-04-19 21:29 | 53.17010 | 158.42723 | 133 ft | 13 kts | 258° |
| 2026-04-19 21:29 | 53.17033 | 158.42651 | 133 ft | 4 kts | 12° |
| 2026-04-19 21:30 | 53.17046 | 158.42676 | 133 ft | 3 kts | 59° |
| 2026-04-19 21:30 | 53.17046 | 158.42677 | 133 ft | 0 kts | 60° |